Time;durP1;ratioP1;P1;durP2;ratioP2;P2;SDS_P1;SDS_P2;PMS_P1;PMS_P2;Temp;Humidity;BMP_temperature;BMP_pressure;BME280_temperature;BME280_humidity;BME280_pressure;Samples;Min_cycle;Max_cycle;Signal;HPM_P1;HPM_P2
2021/03/28 00:01:38;;;;;;;4.83;2.07;;;6.80;96.20;;;;;;5045058;28;20530;-78
2021/03/28 00:04:09;;;;;;;6.00;2.23;;;6.80;96.50;;;;;;5049259;28;20475;-77
2021/03/28 00:06:52;;;;;;;4.63;2.23;;;6.70;96.60;;;;;;5044527;28;20487;-77
2021/03/28 00:09:22;;;;;;;6.00;3.10;;;6.70;97.00;;;;;;5048208;28;20499;-77
2021/03/28 00:12:02;;;;;;;7.60;2.00;;;6.50;97.60;;;;;;5049349;28;20470;-77
2021/03/28 00:14:54;;;;;;;3.70;2.03;;;6.40;98.00;;;;;;5048890;28;20447;-77
2021/03/28 00:17:31;;;;;;;4.70;1.93;;;6.20;98.30;;;;;;5033875;28;20484;-77
2021/03/28 00:20:07;;;;;;;5.87;1.90;;;6.00;98.80;;;;;;5048480;28;20526;-77
2021/03/28 00:22:36;;;;;;;6.90;2.50;;;6.00;98.70;;;;;;5048879;28;20459;-78
2021/03/28 00:25:10;;;;;;;7.37;2.27;;;6.00;99.10;;;;;;5049242;28;20479;-77
2021/03/28 00:27:42;;;;;;;5.80;3.67;;;6.00;99.20;;;;;;5048927;28;20848;-77
2021/03/28 00:30:23;;;;;;;7.50;2.37;;;6.00;99.40;;;;;;5048010;28;20440;-77
2021/03/28 00:32:54;;;;;;;4.50;2.47;;;5.90;99.90;;;;;;5048871;28;20519;-77
2021/03/28 00:35:26;;;;;;;3.13;2.10;;;5.90;99.90;;;;;;5048460;28;20505;-78
2021/03/28 00:38:03;;;;;;;6.67;3.20;;;5.80;99.90;;;;;;5048529;28;20471;-78
2021/03/28 00:40:32;;;;;;;7.63;2.40;;;5.70;99.90;;;;;;5050065;28;20538;-77
2021/03/28 00:43:20;;;;;;;4.30;1.97;;;5.60;99.90;;;;;;5053200;28;20509;-77
2021/03/28 00:45:56;;;;;;;4.43;1.77;;;5.60;99.90;;;;;;5048122;28;20565;-79
2021/03/28 00:48:25;;;;;;;6.43;2.37;;;5.60;99.90;;;;;;5060102;28;20555;-79
2021/03/28 00:50:56;;;;;;;7.37;2.30;;;5.60;99.90;;;;;;5059946;28;20432;-79
2021/03/28 00:53:39;;;;;;;6.23;2.10;;;5.60;99.90;;;;;;5060215;28;20523;-78
2021/03/28 00:56:10;;;;;;;5.70;2.20;;;5.50;99.90;;;;;;5060609;28;20447;-79
2021/03/28 00:58:46;;;;;;;4.53;2.10;;;5.60;99.90;;;;;;5059422;28;20529;-78
2021/03/28 01:01:31;;;;;;;3.93;2.50;;;5.60;99.90;;;;;;5060439;28;20475;-79
2021/03/28 01:04:37;;;;;;;5.63;2.20;;;5.60;99.90;;;;;;5063305;28;20455;-78
2021/03/28 01:07:15;;;;;;;5.13;2.90;;;5.60;99.90;;;;;;5061291;28;20456;-79
2021/03/28 01:10:24;;;;;;;6.37;2.03;;;5.70;99.90;;;;;;5057359;28;20535;-78
2021/03/28 01:13:24;;;;;;;5.33;2.50;;;5.70;99.90;;;;;;5022238;28;20462;-79
2021/03/28 01:16:20;;;;;;;5.77;2.60;;;5.60;99.90;;;;;;5058424;28;20570;-79
2021/03/28 01:19:08;;;;;;;5.30;2.17;;;5.50;99.90;;;;;;5033089;28;20456;-78
2021/03/28 01:21:45;;;;;;;4.73;2.20;;;5.50;99.90;;;;;;5059726;28;20447;-79
2021/03/28 01:24:26;;;;;;;3.80;2.60;;;5.60;99.90;;;;;;5061303;28;20482;-78
2021/03/28 01:27:19;;;;;;;4.83;2.57;;;5.60;99.90;;;;;;5061694;28;20479;-78
2021/03/28 01:29:50;;;;;;;7.50;2.57;;;5.70;99.90;;;;;;5060645;28;20531;-79
2021/03/28 01:32:30;;;;;;;6.03;2.60;;;5.70;99.90;;;;;;5060623;28;20448;-79
2021/03/28 01:35:03;;;;;;;5.37;2.50;;;5.70;99.90;;;;;;5053717;28;21028;-77
2021/03/28 01:37:40;;;;;;;6.77;2.33;;;5.70;99.90;;;;;;5059870;28;21079;-79
2021/03/28 01:40:11;;;;;;;3.30;1.87;;;5.70;99.90;;;;;;5058807;28;20471;-78
2021/03/28 01:42:58;;;;;;;11.10;2.20;;;5.70;99.90;;;;;;5060259;28;20488;-78
2021/03/28 01:45:34;;;;;;;6.43;1.90;;;5.80;99.90;;;;;;5055770;28;20575;-77
2021/03/28 01:48:26;;;;;;;3.77;2.30;;;5.70;99.90;;;;;;5054629;28;20507;-79
2021/03/28 01:51:19;;;;;;;8.40;2.40;;;5.70;99.90;;;;;;5058964;28;20475;-78
2021/03/28 01:53:54;;;;;;;4.13;2.43;;;5.80;99.90;;;;;;5066292;28;20992;-79
2021/03/28 01:56:29;;;;;;;5.33;2.57;;;5.80;99.90;;;;;;5062165;28;20444;-79
2021/03/28 01:59:07;;;;;;;6.60;2.70;;;5.70;99.90;;;;;;5063584;28;20506;-79
2021/03/28 02:01:44;;;;;;;6.20;2.60;;;5.60;99.90;;;;;;5060429;28;20467;-78
2021/03/28 02:04:22;;;;;;;5.70;2.53;;;5.60;99.90;;;;;;5056637;28;20848;-78
2021/03/28 02:07:18;;;;;;;8.23;2.33;;;5.50;99.90;;;;;;5057078;28;20499;-78
2021/03/28 02:09:55;;;;;;;5.67;2.80;;;5.40;99.90;;;;;;5055866;28;20527;-78
2021/03/28 02:12:34;;;;;;;6.30;3.03;;;5.50;99.90;;;;;;5059092;28;21085;-79
2021/03/28 02:15:26;;;;;;;5.77;2.27;;;5.50;99.90;;;;;;5059632;28;20452;-78
2021/03/28 02:18:02;;;;;;;7.43;2.47;;;5.40;99.90;;;;;;5059922;28;20492;-77
2021/03/28 02:20:43;;;;;;;5.03;2.33;;;5.50;99.90;;;;;;5058348;28;20474;-79
2021/03/28 02:23:23;;;;;;;5.40;2.20;;;5.40;99.90;;;;;;5059729;28;20506;-79
2021/03/28 02:25:56;;;;;;;5.63;2.47;;;5.30;99.90;;;;;;5058160;28;20562;-79
2021/03/28 02:28:43;;;;;;;10.67;2.60;;;5.10;99.90;;;;;;5056928;28;20552;-78
2021/03/28 02:31:21;;;;;;;5.67;2.30;;;5.10;99.90;;;;;;5056625;28;21073;-79
2021/03/28 02:33:53;;;;;;;7.67;3.30;;;5.00;99.90;;;;;;5056973;28;20471;-78
2021/03/28 02:36:31;;;;;;;6.00;3.43;;;5.00;99.90;;;;;;5059313;28;20464;-78
2021/03/28 02:39:15;;;;;;;10.27;2.93;;;5.00;99.90;;;;;;5059850;28;20417;-78
2021/03/28 02:42:09;;;;;;;7.63;2.87;;;5.10;99.90;;;;;;5058941;28;20428;-79
2021/03/28 02:45:08;;;;;;;5.83;2.50;;;5.20;99.90;;;;;;5058837;28;20459;-79
2021/03/28 02:48:14;;;;;;;6.50;2.50;;;5.10;99.90;;;;;;5058821;28;20468;-79
2021/03/28 02:51:16;;;;;;;4.30;2.50;;;5.10;99.90;;;;;;5040792;28;20515;-79
2021/03/28 02:54:04;;;;;;;12.17;2.70;;;5.00;99.90;;;;;;5058918;28;20527;-78
2021/03/28 02:56:49;;;;;;;5.90;2.50;;;5.00;99.90;;;;;;5048174;28;20538;-78
2021/03/28 02:59:31;;;;;;;5.97;2.13;;;5.10;99.90;;;;;;5058826;28;20511;-78
2021/03/28 03:02:24;;;;;;;6.20;2.83;;;5.20;99.90;;;;;;5058453;28;20465;-78
2021/03/28 03:05:06;;;;;;;6.20;2.73;;;5.30;99.90;;;;;;5057873;28;20511;-78
2021/03/28 03:08:00;;;;;;;6.43;2.20;;;5.20;99.90;;;;;;5060302;28;20618;-78
2021/03/28 03:11:00;;;;;;;6.90;2.63;;;5.30;99.90;;;;;;5044984;28;20958;-79
2021/03/28 03:14:11;;;;;;;4.60;2.43;;;5.30;99.90;;;;;;5058405;28;21006;-78
2021/03/28 03:17:17;;;;;;;5.00;2.50;;;5.30;99.90;;;;;;5021924;28;20527;-79
2021/03/28 03:20:17;;;;;;;5.70;2.87;;;5.30;99.90;;;;;;5058599;28;20515;-79
2021/03/28 03:23:29;;;;;;;6.83;2.33;;;5.20;99.90;;;;;;5058675;28;20887;-78
2021/03/28 03:26:32;;;;;;;5.40;2.43;;;5.20;99.90;;;;;;5058049;28;20546;-78
2021/03/28 03:29:44;;;;;;;4.53;2.10;;;5.10;99.90;;;;;;5057675;28;20857;-79
2021/03/28 03:32:33;;;;;;;3.83;1.93;;;5.20;99.90;;;;;;4996492;28;21011;-78
2021/03/28 03:35:20;;;;;;;4.17;2.67;;;5.10;99.90;;;;;;4968999;28;20471;-79
2021/03/28 03:38:22;;;;;;;4.93;2.70;;;5.10;99.90;;;;;;5041590;28;20547;-78
2021/03/28 03:41:02;;;;;;;5.00;3.27;;;5.10;99.90;;;;;;5057438;28;20544;-79
2021/03/28 03:43:58;;;;;;;6.50;2.33;;;5.20;99.90;;;;;;5058265;28;20855;-77
2021/03/28 03:46:54;;;;;;;5.40;2.50;;;5.20;99.90;;;;;;5057867;28;20622;-78
2021/03/28 03:49:56;;;;;;;5.50;3.10;;;5.30;99.90;;;;;;5051356;28;20480;-78
2021/03/28 03:52:42;;;;;;;7.43;2.10;;;5.30;99.90;;;;;;5060507;28;20467;-77
2021/03/28 03:55:18;;;;;;;6.80;3.03;;;5.30;99.90;;;;;;5060739;28;20472;-77
2021/03/28 03:57:49;;;;;;;5.07;2.50;;;5.30;99.90;;;;;;5060306;28;20467;-77
2021/03/28 04:00:21;;;;;;;6.57;2.33;;;5.30;99.90;;;;;;5059679;28;20475;-77
2021/03/28 04:02:54;;;;;;;5.10;2.33;;;5.30;99.90;;;;;;5059325;28;20490;-77
2021/03/28 04:05:56;;;;;;;4.73;2.47;;;5.30;99.90;;;;;;5057894;28;20559;-78
2021/03/28 04:08:56;;;;;;;5.70;2.20;;;5.30;99.90;;;;;;5057548;28;20554;-77
2021/03/28 04:12:08;;;;;;;9.53;2.57;;;5.40;99.90;;;;;;5056618;28;20527;-77
2021/03/28 04:14:53;;;;;;;5.57;2.60;;;5.40;99.90;;;;;;5021640;28;20471;-78
2021/03/28 04:17:39;;;;;;;4.77;2.20;;;5.30;99.90;;;;;;5057966;28;20843;-77
2021/03/28 04:20:12;;;;;;;3.83;2.40;;;5.10;99.90;;;;;;5057677;28;20922;-77
2021/03/28 04:23:08;;;;;;;5.67;2.30;;;5.00;99.90;;;;;;5057917;28;20813;-77
2021/03/28 04:25:45;;;;;;;5.83;2.23;;;4.80;99.90;;;;;;5057637;28;20480;-78
2021/03/28 04:28:30;;;;;;;8.07;2.57;;;4.70;99.90;;;;;;5057909;28;20467;-78
2021/03/28 04:31:25;;;;;;;5.97;2.40;;;4.60;99.90;;;;;;5056992;28;20543;-77
2021/03/28 04:34:01;;;;;;;6.10;2.30;;;4.60;99.90;;;;;;5057594;28;20535;-78
2021/03/28 04:36:37;;;;;;;4.50;2.30;;;4.70;99.90;;;;;;5057878;28;20519;-77
2021/03/28 04:39:42;;;;;;;4.60;2.47;;;4.70;99.90;;;;;;5058635;28;20454;-78
2021/03/28 04:42:41;;;;;;;4.93;2.50;;;4.70;99.90;;;;;;5057496;28;20468;-78
2021/03/28 04:45:50;;;;;;;6.03;2.40;;;4.50;99.90;;;;;;5058355;28;20613;-77
2021/03/28 04:48:54;;;;;;;3.07;2.10;;;4.50;99.90;;;;;;5057951;28;20491;-78
2021/03/28 04:52:06;;;;;;;4.03;2.43;;;4.50;99.90;;;;;;5057948;28;20531;-78
2021/03/28 04:55:24;;;;;;;5.80;2.70;;;4.40;99.90;;;;;;5057863;28;20527;-77
2021/03/28 04:58:10;;;;;;;6.63;2.67;;;4.30;99.90;;;;;;5058621;28;20547;-78
2021/03/28 05:01:18;;;;;;;7.70;2.47;;;4.30;99.90;;;;;;5057987;28;20443;-78
2021/03/28 05:04:09;;;;;;;5.10;1.97;;;4.30;99.90;;;;;;5057930;28;20448;-78
2021/03/28 05:07:06;;;;;;;6.63;2.57;;;4.30;99.90;;;;;;5058060;28;20566;-77
2021/03/28 05:10:22;;;;;;;5.63;2.30;;;4.30;99.90;;;;;;5057907;28;20495;-77
2021/03/28 05:13:12;;;;;;;7.53;2.30;;;4.40;99.90;;;;;;5057545;28;20534;-78
2021/03/28 05:16:23;;;;;;;6.20;2.67;;;4.50;99.90;;;;;;5058177;28;20479;-77
2021/03/28 05:19:20;;;;;;;7.00;2.40;;;4.50;99.90;;;;;;5058637;28;20468;-77
2021/03/28 05:22:25;;;;;;;5.73;2.73;;;4.60;99.90;;;;;;5057310;28;20483;-78
2021/03/28 05:25:34;;;;;;;7.10;3.43;;;4.70;99.90;;;;;;5057566;28;20523;-77
2021/03/28 05:28:34;;;;;;;4.53;2.57;;;4.70;99.90;;;;;;5060394;28;20499;-77
2021/03/28 05:31:39;;;;;;;4.50;2.80;;;4.80;99.90;;;;;;5061400;28;20520;-77
2021/03/28 05:34:43;;;;;;;8.83;2.87;;;4.90;99.90;;;;;;5061687;28;20522;-78
2021/03/28 05:37:41;;;;;;;7.33;3.37;;;5.00;99.90;;;;;;5062091;28;20495;-78
2021/03/28 05:40:37;;;;;;;5.03;2.17;;;5.00;99.90;;;;;;5060799;28;20538;-77
2021/03/28 05:43:37;;;;;;;4.60;2.40;;;5.10;99.90;;;;;;5061067;28;21038;-77
2021/03/28 05:46:17;;;;;;;4.40;3.10;;;5.20;99.90;;;;;;5060918;28;20614;-77
2021/03/28 05:49:11;;;;;;;4.10;2.50;;;5.20;99.90;;;;;;5060537;28;20886;-77
2021/03/28 05:51:59;;;;;;;4.10;2.57;;;5.30;99.90;;;;;;5060864;28;20476;-77
2021/03/28 05:55:10;;;;;;;6.83;2.70;;;5.20;99.90;;;;;;5060380;28;20447;-78
2021/03/28 05:58:08;;;;;;;3.13;2.10;;;5.10;99.90;;;;;;5061170;28;20966;-78
2021/03/28 06:01:01;;;;;;;8.17;2.90;;;5.10;99.90;;;;;;5063309;28;20527;-77
2021/03/28 06:04:18;;;;;;;7.50;2.47;;;5.00;99.90;;;;;;5063315;28;20440;-77
2021/03/28 06:07:27;;;;;;;6.43;2.63;;;5.00;99.90;;;;;;5062661;28;20491;-77
2021/03/28 06:10:42;;;;;;;11.47;3.07;;;5.00;99.90;;;;;;5061664;28;20436;-77
2021/03/28 06:13:34;;;;;;;6.37;3.30;;;4.80;99.90;;;;;;5061110;28;20523;-77
2021/03/28 06:16:15;;;;;;;5.10;2.57;;;4.80;99.90;;;;;;5030745;28;20459;-76
2021/03/28 06:19:29;;;;;;;4.13;2.50;;;4.70;99.90;;;;;;5060423;28;20516;-77
2021/03/28 06:22:55;;;;;;;10.00;3.70;;;4.70;99.90;;;;;;5060511;28;20476;-77
2021/03/28 06:25:56;;;;;;;7.30;2.77;;;4.70;99.90;;;;;;5059953;28;20563;-78
2021/03/28 06:28:59;;;;;;;6.03;3.20;;;4.80;99.90;;;;;;5059114;28;20463;-77
2021/03/28 06:32:14;;;;;;;9.70;3.13;;;4.90;99.90;;;;;;5057974;28;20483;-77
2021/03/28 06:35:14;;;;;;;4.17;2.53;;;5.10;99.90;;;;;;5056671;28;20515;-76
2021/03/28 06:38:29;;;;;;;4.70;2.50;;;5.30;99.90;;;;;;5052244;28;20476;-77
2021/03/28 06:41:26;;;;;;;6.37;3.00;;;5.30;99.90;;;;;;5057765;28;20479;-76
2021/03/28 06:44:20;;;;;;;9.37;2.60;;;5.50;99.90;;;;;;5059417;28;20479;-77
2021/03/28 06:47:26;;;;;;;4.17;2.90;;;5.70;99.90;;;;;;5059463;28;20511;-78
2021/03/28 06:50:27;;;;;;;6.20;3.80;;;5.90;99.90;;;;;;5058405;28;21202;-77
2021/03/28 06:53:21;;;;;;;7.97;3.20;;;6.00;99.90;;;;;;5058755;28;20577;-77
2021/03/28 06:56:02;;;;;;;4.00;2.60;;;6.20;99.90;;;;;;5059458;28;20468;-78
2021/03/28 06:59:05;;;;;;;4.13;3.17;;;6.50;99.90;;;;;;5059489;28;20560;-78
2021/03/28 07:02:06;;;;;;;5.43;2.90;;;6.80;99.90;;;;;;5059762;28;20523;-78
2021/03/28 07:05:08;;;;;;;4.53;2.93;;;7.10;99.90;;;;;;5056710;28;20535;-78
2021/03/28 07:08:22;;;;;;;5.47;3.37;;;7.40;99.90;;;;;;5059391;28;20509;-77
2021/03/28 07:11:32;;;;;;;6.03;2.77;;;7.60;99.90;;;;;;4997132;28;20427;-77
2021/03/28 07:14:43;;;;;;;7.50;3.90;;;7.90;99.90;;;;;;4983248;28;20459;-77
2021/03/28 07:17:54;;;;;;;5.67;3.00;;;8.10;99.90;;;;;;5023024;28;20587;-78
2021/03/28 07:20:36;;;;;;;5.90;3.20;;;8.30;99.90;;;;;;5058870;28;20507;-77
2021/03/28 07:23:41;;;;;;;6.83;3.10;;;8.40;99.90;;;;;;5059519;28;20519;-77
2021/03/28 07:26:17;;;;;;;7.60;3.50;;;8.40;99.90;;;;;;5059596;28;20566;-77
2021/03/28 07:29:23;;;;;;;5.60;2.77;;;8.60;99.90;;;;;;5059302;28;20443;-78
2021/03/28 07:32:19;;;;;;;6.00;2.63;;;8.80;99.90;;;;;;5026404;28;20494;-77
2021/03/28 07:35:21;;;;;;;4.70;2.57;;;9.00;99.90;;;;;;5057323;28;20456;-78
2021/03/28 07:38:21;;;;;;;8.33;3.70;;;9.20;99.90;;;;;;5059884;28;20523;-79
2021/03/28 07:41:22;;;;;;;4.97;2.70;;;9.30;99.90;;;;;;5058281;28;20448;-77
2021/03/28 07:44:17;;;;;;;5.90;2.80;;;9.60;99.90;;;;;;5057789;28;20482;-77
2021/03/28 07:47:19;;;;;;;4.00;2.50;;;9.80;99.90;;;;;;5059386;28;20586;-79
2021/03/28 07:50:27;;;;;;;7.50;2.67;;;10.20;99.90;;;;;;5051318;28;20588;-77
2021/03/28 07:53:22;;;;;;;7.03;2.57;;;10.50;99.60;;;;;;5037383;28;20480;-78
2021/03/28 07:56:04;;;;;;;7.53;3.30;;;10.70;98.90;;;;;;5027426;28;20468;-79
2021/03/28 07:58:56;;;;;;;4.37;2.53;;;10.80;97.70;;;;;;5059056;28;20503;-77
2021/03/28 08:01:50;;;;;;;4.60;2.57;;;10.90;98.30;;;;;;5058871;28;20472;-77
2021/03/28 08:04:51;;;;;;;4.37;2.23;;;10.90;97.50;;;;;;5053096;28;20974;-73
2021/03/28 08:07:52;;;;;;;3.83;2.77;;;11.00;97.10;;;;;;5051065;28;20505;-76
2021/03/28 08:10:51;;;;;;;6.10;2.90;;;11.10;96.90;;;;;;5050808;28;20523;-76
2021/03/28 08:14:00;;;;;;;6.73;3.40;;;11.20;97.10;;;;;;5046995;28;20549;-76
2021/03/28 08:16:39;;;;;;;7.40;3.57;;;11.30;96.50;;;;;;5053837;28;20515;-78
2021/03/28 08:19:25;;;;;;;7.43;3.30;;;11.10;96.80;;;;;;5052897;28;20471;-76
2021/03/28 08:22:00;;;;;;;4.80;2.77;;;10.90;96.90;;;;;;5054793;28;20555;-76
2021/03/28 08:24:55;;;;;;;6.20;2.53;;;10.70;97.50;;;;;;5055188;28;20479;-77
2021/03/28 08:28:01;;;;;;;7.07;3.50;;;10.50;97.60;;;;;;5054736;28;20452;-76
2021/03/28 08:30:45;;;;;;;7.13;2.60;;;10.50;97.60;;;;;;5026303;28;20510;-77
2021/03/28 08:33:37;;;;;;;6.03;2.73;;;10.40;98.00;;;;;;5050776;28;20439;-75
2021/03/28 08:36:21;;;;;;;5.80;3.23;;;10.50;98.50;;;;;;5050691;28;20922;-75
2021/03/28 08:39:08;;;;;;;8.77;3.03;;;10.70;98.00;;;;;;5050450;28;21029;-74
2021/03/28 08:41:48;;;;;;;3.90;2.40;;;10.90;98.40;;;;;;5050231;28;20531;-75
2021/03/28 08:44:44;;;;;;;7.00;3.20;;;11.20;97.30;;;;;;5051004;28;20530;-75
2021/03/28 08:47:42;;;;;;;5.20;2.67;;;11.30;96.80;;;;;;5050503;28;20893;-76
2021/03/28 08:50:21;;;;;;;6.47;2.63;;;11.50;96.50;;;;;;5050024;28;20486;-76
2021/03/28 08:53:26;;;;;;;7.33;3.07;;;11.50;95.90;;;;;;5050515;28;20457;-76
2021/03/28 08:56:19;;;;;;;7.87;2.63;;;11.70;95.30;;;;;;4988647;28;20445;-77
2021/03/28 08:58:53;;;;;;;5.80;3.07;;;11.90;95.90;;;;;;5046701;28;20886;-77
2021/03/28 09:01:26;;;;;;;10.23;3.07;;;12.00;95.40;;;;;;5052359;28;20581;-73
2021/03/28 09:04:07;;;;;;;4.80;2.47;;;12.10;95.50;;;;;;5054460;28;20524;-75
2021/03/28 09:06:49;;;;;;;5.70;3.07;;;12.30;94.60;;;;;;5054131;28;20563;-75
2021/03/28 09:09:33;;;;;;;5.20;2.47;;;12.40;93.80;;;;;;5054045;28;20463;-75
2021/03/28 09:12:10;;;;;;;4.70;2.40;;;12.70;94.30;;;;;;5054074;28;20985;-76
2021/03/28 09:15:12;;;;;;;4.03;2.23;;;12.90;94.10;;;;;;5054212;28;20890;-74
2021/03/28 09:17:50;;;;;;;7.07;2.60;;;13.00;92.50;;;;;;4992213;28;20528;-71
2021/03/28 09:20:35;;;;;;;5.93;2.47;;;13.40;91.60;;;;;;5046295;28;20455;-74
2021/03/28 09:23:17;;;;;;;6.43;2.50;;;13.70;90.50;;;;;;5054221;28;20514;-73
2021/03/28 09:25:56;;;;;;;5.13;1.97;;;14.00;90.80;;;;;;5054112;28;20581;-72
2021/03/28 09:28:30;;;;;;;6.20;2.40;;;14.10;90.00;;;;;;5054003;28;20938;-71
2021/03/28 09:31:02;;;;;;;6.57;2.50;;;14.30;87.20;;;;;;5054229;28;20580;-76
2021/03/28 09:33:38;;;;;;;7.00;3.80;;;14.40;88.30;;;;;;5054114;28;20598;-76
2021/03/28 09:36:36;;;;;;;6.80;2.70;;;14.40;88.00;;;;;;5051290;28;20522;-75
2021/03/28 09:39:30;;;;;;;6.60;3.00;;;14.60;86.80;;;;;;5052914;28;20481;-73
2021/03/28 09:42:38;;;;;;;6.27;2.97;;;15.10;85.40;;;;;;5050213;28;20447;-75
2021/03/28 09:45:46;;;;;;;4.80;2.20;;;15.40;84.50;;;;;;5054529;28;20455;-75
2021/03/28 09:48:45;;;;;;;5.33;2.27;;;15.90;83.30;;;;;;5054799;28;20539;-76
2021/03/28 09:51:36;;;;;;;5.67;2.50;;;16.00;82.60;;;;;;5021632;28;20535;-76
2021/03/28 09:54:21;;;;;;;5.60;2.00;;;15.80;79.10;;;;;;5053486;28;20482;-74
2021/03/28 09:57:09;;;;;;;3.57;1.77;;;16.10;81.90;;;;;;5052956;28;20491;-73
2021/03/28 10:00:14;;;;;;;3.57;1.53;;;16.40;74.10;;;;;;5053288;28;20436;-75
2021/03/28 10:02:48;;;;;;;5.10;2.10;;;16.90;72.20;;;;;;5029761;28;20444;-75
2021/03/28 10:05:24;;;;;;;3.33;1.60;;;16.60;69.70;;;;;;5053223;28;20530;-75
2021/03/28 10:08:06;;;;;;;4.00;1.70;;;16.70;68.00;;;;;;5055011;28;21047;-76
2021/03/28 10:10:53;;;;;;;5.07;1.90;;;16.60;68.40;;;;;;5053136;28;20472;-74
2021/03/28 10:13:38;;;;;;;3.60;2.00;;;16.50;69.80;;;;;;5057370;28;20962;-75
2021/03/28 10:16:13;;;;;;;5.60;1.80;;;16.40;67.90;;;;;;5053788;28;20436;-77
2021/03/28 10:19:00;;;;;;;3.67;1.70;;;16.00;65.10;;;;;;5055634;28;20464;-75
2021/03/28 10:21:59;;;;;;;4.33;2.10;;;15.90;67.50;;;;;;5053454;28;20844;-77
2021/03/28 10:24:42;;;;;;;2.50;1.40;;;16.10;67.60;;;;;;5052725;28;21067;-77
2021/03/28 10:27:54;;;;;;;3.07;1.90;;;15.70;67.20;;;;;;5051622;28;20558;-77
2021/03/28 10:30:28;;;;;;;3.63;1.87;;;15.80;69.40;;;;;;4995593;28;20547;-76
2021/03/28 10:33:06;;;;;;;3.87;1.97;;;16.40;67.40;;;;;;5052681;28;20527;-76
2021/03/28 10:35:57;;;;;;;6.57;1.70;;;16.70;66.00;;;;;;5032755;28;20542;-77
2021/03/28 10:38:46;;;;;;;4.23;2.13;;;17.20;66.90;;;;;;5032022;28;20479;-76
2021/03/28 10:41:29;;;;;;;4.93;1.90;;;17.70;64.90;;;;;;5035430;28;20459;-77
2021/03/28 10:44:19;;;;;;;5.20;1.63;;;18.10;64.70;;;;;;5049839;28;20819;-77
2021/03/28 10:47:20;;;;;;;4.87;1.90;;;18.30;61.10;;;;;;5037654;28;20484;-77
2021/03/28 10:50:27;;;;;;;6.10;2.00;;;18.30;63.10;;;;;;5044258;28;20467;-77
2021/03/28 10:53:27;;;;;;;4.57;1.80;;;18.60;61.80;;;;;;5051559;28;20522;-77
2021/03/28 10:56:15;;;;;;;2.87;1.80;;;19.00;61.40;;;;;;5053418;28;20504;-77
2021/03/28 10:59:14;;;;;;;4.27;1.80;;;19.10;59.50;;;;;;5054205;28;20468;-77
2021/03/28 11:02:38;;;;;;;4.13;2.00;;;19.20;59.00;;;;;;5022071;28;21018;-76
2021/03/28 11:05:38;;;;;;;4.40;2.23;;;18.60;57.20;;;;;;5045127;28;20437;-77
2021/03/28 11:08:17;;;;;;;4.23;2.20;;;18.50;59.60;;;;;;5045008;28;20537;-78
2021/03/28 11:11:14;;;;;;;7.10;2.23;;;19.00;59.40;;;;;;5049921;28;20534;-76
2021/03/28 11:14:05;;;;;;;4.13;1.57;;;19.20;58.40;;;;;;5045390;28;21004;-76
2021/03/28 11:17:02;;;;;;;6.67;1.70;;;19.40;56.70;;;;;;5047913;28;20490;-77
2021/03/28 11:20:20;;;;;;;4.70;2.43;;;19.80;57.10;;;;;;5048410;28;20455;-77
2021/03/28 11:22:59;;;;;;;4.17;1.60;;;19.80;57.20;;;;;;5054680;28;20912;-77
2021/03/28 11:25:28;;;;;;;4.50;1.90;;;20.70;55.40;;;;;;5050500;28;20448;-78
2021/03/28 11:28:22;;;;;;;3.37;1.60;;;20.30;54.70;;;;;;5049607;28;20543;-77
2021/03/28 11:30:52;;;;;;;3.80;1.63;;;20.60;54.30;;;;;;5050143;28;20550;-77
2021/03/28 11:33:29;;;;;;;3.30;1.90;;;20.70;55.00;;;;;;5050748;28;20512;-77
2021/03/28 11:36:18;;;;;;;6.63;3.33;;;20.90;53.90;;;;;;5050323;28;20973;-77
2021/03/28 11:39:09;;;;;;;5.43;1.80;;;21.10;53.60;;;;;;5049483;28;20483;-78
2021/03/28 11:41:49;;;;;;;4.77;1.50;;;21.40;52.80;;;;;;5047020;28;20424;-77
2021/03/28 11:44:32;;;;;;;4.97;2.43;;;22.00;53.10;;;;;;5048037;28;20531;-77
2021/03/28 11:47:23;;;;;;;3.53;2.07;;;21.30;50.50;;;;;;5046899;28;20915;-78
2021/03/28 11:49:58;;;;;;;4.43;2.77;;;20.10;51.90;;;;;;5049135;28;20527;-77
2021/03/28 11:52:30;;;;;;;4.50;1.73;;;20.40;53.00;;;;;;5041227;28;20471;-77
2021/03/28 11:55:08;;;;;;;6.20;1.87;;;20.50;51.90;;;;;;5048521;28;20516;-77
2021/03/28 11:57:37;;;;;;;4.70;1.87;;;20.90;52.50;;;;;;5049314;28;20483;-77
2021/03/28 12:00:40;;;;;;;4.27;2.20;;;21.80;52.40;;;;;;5048341;28;21023;-80
2021/03/28 12:03:35;;;;;;;3.70;1.67;;;22.20;51.30;;;;;;5045774;28;20455;-80
2021/03/28 12:06:06;;;;;;;4.47;2.20;;;22.30;50.50;;;;;;5046065;28;20475;-78
2021/03/28 12:08:35;;;;;;;2.70;1.70;;;22.10;50.90;;;;;;5050663;28;20949;-75
2021/03/28 12:11:35;;;;;;;3.23;1.83;;;21.90;50.00;;;;;;5049570;28;20494;-74
2021/03/28 12:14:29;;;;;;;4.13;2.40;;;21.70;50.90;;;;;;5049574;28;20947;-74
2021/03/28 12:17:25;;;;;;;5.60;2.20;;;21.60;51.80;;;;;;5045387;28;20475;-74
2021/03/28 12:20:18;;;;;;;3.50;1.90;;;22.00;49.90;;;;;;5049432;28;20535;-73
2021/03/28 12:22:57;;;;;;;5.60;2.43;;;22.30;49.90;;;;;;5049072;28;20496;-73
2021/03/28 12:25:36;;;;;;;6.77;1.90;;;21.30;50.10;;;;;;5049448;28;20479;-73
2021/03/28 12:28:26;;;;;;;7.67;2.67;;;21.20;52.20;;;;;;5049528;28;20513;-73
2021/03/28 12:30:54;;;;;;;4.60;1.73;;;21.80;50.40;;;;;;5034399;28;20456;-73
2021/03/28 12:33:23;;;;;;;6.50;2.50;;;22.40;48.80;;;;;;5049436;28;20467;-73
2021/03/28 12:36:02;;;;;;;4.60;2.00;;;22.40;47.60;;;;;;5048772;28;20485;-73
2021/03/28 12:38:57;;;;;;;5.17;2.03;;;23.50;49.10;;;;;;5049193;28;21020;-74
2021/03/28 12:41:28;;;;;;;6.37;2.20;;;24.90;49.10;;;;;;5048604;28;20443;-74
2021/03/28 12:43:59;;;;;;;4.20;2.00;;;24.50;47.50;;;;;;5049444;28;20490;-74
2021/03/28 12:46:52;;;;;;;5.77;2.17;;;23.30;47.40;;;;;;5049301;28;20546;-73
2021/03/28 12:49:24;;;;;;;4.40;1.90;;;22.20;48.80;;;;;;5048848;28;21171;-74
2021/03/28 12:52:02;;;;;;;3.50;2.00;;;21.70;50.50;;;;;;5048869;28;20467;-74
2021/03/28 12:54:33;;;;;;;3.87;2.13;;;21.90;49.00;;;;;;5049426;28;20535;-73
2021/03/28 12:57:02;;;;;;;6.17;2.63;;;22.50;48.70;;;;;;5049077;28;20460;-73
2021/03/28 12:59:35;;;;;;;6.60;2.20;;;23.30;46.50;;;;;;5048771;28;20463;-72
2021/03/28 13:02:14;;;;;;;3.97;2.23;;;24.00;48.00;;;;;;5048965;28;20526;-72
2021/03/28 13:04:51;;;;;;;4.10;2.40;;;23.90;46.90;;;;;;5048595;28;20444;-73
2021/03/28 13:07:38;;;;;;;4.83;2.00;;;24.00;47.50;;;;;;5048814;28;20483;-73
2021/03/28 13:10:12;;;;;;;5.57;2.30;;;24.90;46.00;;;;;;5045676;28;21172;-74
2021/03/28 13:12:39;;;;;;;3.73;1.77;;;23.80;45.50;;;;;;5047071;28;20526;-74
2021/03/28 13:15:22;;;;;;;4.10;2.00;;;23.30;47.00;;;;;;5048241;28;21035;-75
2021/03/28 13:18:03;;;;;;;4.30;1.93;;;23.40;48.20;;;;;;5048684;28;20459;-73
2021/03/28 13:20:38;;;;;;;4.00;2.13;;;24.30;47.40;;;;;;5048232;28;20542;-73
2021/03/28 13:23:27;;;;;;;5.43;2.00;;;24.30;45.30;;;;;;5048625;28;20467;-76
2021/03/28 13:26:22;;;;;;;4.30;2.10;;;24.70;45.40;;;;;;5049018;28;20471;-74
2021/03/28 13:29:02;;;;;;;5.30;1.70;;;24.00;45.60;;;;;;5013773;28;20502;-74
2021/03/28 13:31:45;;;;;;;4.43;1.93;;;24.30;45.50;;;;;;5048506;28;20475;-76
2021/03/28 13:34:26;;;;;;;4.07;2.37;;;24.70;45.10;;;;;;5048664;28;20455;-74
2021/03/28 13:37:06;;;;;;;3.97;1.73;;;25.10;44.40;;;;;;5048236;28;20456;-75
2021/03/28 13:39:36;;;;;;;2.93;1.63;;;25.10;44.50;;;;;;5046010;28;20466;-75
2021/03/28 13:42:20;;;;;;;7.40;2.40;;;24.60;44.10;;;;;;5045348;28;20449;-73
2021/03/28 13:44:57;;;;;;;5.10;1.83;;;25.00;44.80;;;;;;5047280;28;20478;-74
2021/03/28 13:47:44;;;;;;;3.97;2.13;;;24.40;45.20;;;;;;5046681;28;21049;-74
2021/03/28 13:50:44;;;;;;;3.20;1.87;;;24.80;45.20;;;;;;5047889;28;20527;-76
2021/03/28 13:53:40;;;;;;;5.40;1.77;;;25.70;45.30;;;;;;5039162;28;20447;-74
2021/03/28 13:56:39;;;;;;;2.90;1.60;;;25.10;43.60;;;;;;5037207;28;20454;-73
2021/03/28 13:59:14;;;;;;;3.87;2.07;;;25.90;43.10;;;;;;5051138;28;20619;-77
2021/03/28 14:02:16;;;;;;;3.63;2.10;;;26.30;41.90;;;;;;5045688;28;20444;-75
2021/03/28 14:04:52;;;;;;;3.47;2.03;;;26.10;42.50;;;;;;5048813;28;20637;-78
2021/03/28 14:07:26;;;;;;;5.90;2.07;;;26.30;41.80;;;;;;5053316;28;20487;-78
2021/03/28 14:09:57;;;;;;;4.70;2.00;;;26.60;42.60;;;;;;5049864;28;20490;-78
2021/03/28 14:12:33;;;;;;;4.70;1.90;;;26.50;41.50;;;;;;5051387;28;20527;-76
2021/03/28 14:15:21;;;;;;;4.97;2.43;;;26.20;41.20;;;;;;5052819;28;20946;-73
2021/03/28 14:17:57;;;;;;;5.60;2.27;;;25.90;41.60;;;;;;5051102;28;20602;-74
2021/03/28 14:20:28;;;;;;;3.17;1.43;;;24.10;43.40;;;;;;5052765;28;20451;-78
2021/03/28 14:22:59;;;;;;;5.17;2.10;;;23.40;45.00;;;;;;5043178;28;20476;-75
2021/03/28 14:25:33;;;;;;;3.40;1.60;;;22.50;45.20;;;;;;5048500;28;20519;-74
2021/03/28 14:28:24;;;;;;;4.90;2.40;;;21.60;46.90;;;;;;5049510;28;20467;-76
2021/03/28 14:30:59;;;;;;;3.53;2.13;;;21.80;46.90;;;;;;5048690;28;20456;-76
2021/03/28 14:33:30;;;;;;;3.13;1.80;;;22.20;45.40;;;;;;5049373;28;20629;-76
2021/03/28 14:36:13;;;;;;;3.10;1.80;;;23.00;45.70;;;;;;5047512;28;20894;-76
2021/03/28 14:39:21;;;;;;;3.73;1.60;;;23.60;44.70;;;;;;5041081;28;20507;-75
2021/03/28 14:41:54;;;;;;;3.80;1.60;;;24.20;44.40;;;;;;5041427;28;20475;-76
2021/03/28 14:44:54;;;;;;;4.40;2.23;;;24.10;44.40;;;;;;5049623;28;20436;-77